createdAt,value
2019-03-30T00:00:53.712Z,8.37
2019-03-30T00:06:01.564Z,8.00
2019-03-30T00:11:07.219Z,8.03
2019-03-30T00:16:13.241Z,7.90
2019-03-30T00:21:18.964Z,7.23
2019-03-30T00:26:24.989Z,7.73
2019-03-30T00:31:31.038Z,7.57
2019-03-30T00:36:37.322Z,7.80
2019-03-30T00:41:43.311Z,8.90
2019-03-30T00:46:49.398Z,7.87
2019-03-30T00:51:55.726Z,8.07
2019-03-30T00:57:03.184Z,7.43
2019-03-30T01:02:08.926Z,7.97
2019-03-30T01:07:14.480Z,7.83
2019-03-30T01:12:20.646Z,7.37
2019-03-30T01:17:27.073Z,6.90
2019-03-30T01:22:32.788Z,6.80
2019-03-30T01:27:38.731Z,6.07
2019-03-30T01:32:44.594Z,6.80
2019-03-30T01:37:50.591Z,6.80
2019-03-30T01:42:56.670Z,6.80
2019-03-30T01:48:02.550Z,6.80
2019-03-30T01:53:08.165Z,6.70
2019-03-30T01:58:13.808Z,6.33
2019-03-30T02:03:19.752Z,6.20
2019-03-30T02:08:25.692Z,6.20
2019-03-30T02:13:31.289Z,6.43
2019-03-30T02:18:37.374Z,6.10
2019-03-30T02:23:42.969Z,5.93
2019-03-30T02:28:48.783Z,6.47
2019-03-30T02:33:55.030Z,6.40
2019-03-30T02:39:02.199Z,7.60
2019-03-30T02:44:09.618Z,6.97
2019-03-30T02:49:16.981Z,6.70
2019-03-30T02:54:24.372Z,7.53
2019-03-30T02:59:30.663Z,7.30
2019-03-30T03:04:36.213Z,8.20
2019-03-30T03:09:41.924Z,8.13
2019-03-30T03:14:47.516Z,7.43
2019-03-30T03:19:53.181Z,7.33
2019-03-30T03:24:58.977Z,7.33
2019-03-30T03:30:06.092Z,7.20
2019-03-30T03:35:12.405Z,7.77
2019-03-30T03:40:18.297Z,6.97
2019-03-30T03:45:23.887Z,7.17
2019-03-30T03:50:36.558Z,7.23
2019-03-30T03:55:43.077Z,7.13
2019-03-30T04:00:51.194Z,6.90
2019-03-30T04:05:58.960Z,7.03
2019-03-30T04:11:04.852Z,7.10
2019-03-30T04:16:10.409Z,6.97
2019-03-30T04:21:16.311Z,7.97
2019-03-30T04:26:22.854Z,7.10
2019-03-30T04:31:28.584Z,7.53
2019-03-30T04:36:34.228Z,7.70
2019-03-30T04:41:39.863Z,7.57
2019-03-30T04:46:45.506Z,7.73
2019-03-30T04:51:57.390Z,8.13
2019-03-30T04:57:00.035Z,7.73
2019-03-30T05:02:06.807Z,7.60
2019-03-30T05:07:13.458Z,7.43
2019-03-30T05:12:19.711Z,7.17
2019-03-30T05:17:25.500Z,7.50
2019-03-30T05:22:31.362Z,7.67
2019-03-30T05:27:36.927Z,8.63
2019-03-30T05:32:44.721Z,9.37
2019-03-30T05:37:50.540Z,8.43
2019-03-30T05:42:56.377Z,7.37
2019-03-30T05:48:02.023Z,8.73
2019-03-30T05:53:07.636Z,8.47
2019-03-30T05:58:13.461Z,8.13
2019-03-30T06:03:19.343Z,8.60
2019-03-30T06:08:25.177Z,8.60
2019-03-30T06:13:31.401Z,8.60
2019-03-30T06:18:37.649Z,8.70
2019-03-30T06:23:43.316Z,8.63
2019-03-30T06:28:48.881Z,9.20
2019-03-30T06:33:54.647Z,10.17
2019-03-30T06:39:00.456Z,9.30
2019-03-30T06:44:07.803Z,9.87
2019-03-30T06:49:13.382Z,10.90
2019-03-30T06:54:21.872Z,11.13
2019-03-30T06:59:29.137Z,10.43
2019-03-30T07:04:34.779Z,11.17
2019-03-30T07:09:41.305Z,11.57
2019-03-30T07:14:49.290Z,11.50
2019-03-30T07:19:55.153Z,12.07
2019-03-30T07:25:01.159Z,11.77
2019-03-30T07:30:08.548Z,12.97
2019-03-30T07:35:14.460Z,14.57
2019-03-30T07:40:20.507Z,13.93
2019-03-30T07:45:26.102Z,13.87
2019-03-30T07:50:33.321Z,14.50
2019-03-30T07:55:39.448Z,16.10
2019-03-30T08:00:45.559Z,17.57
2019-03-30T08:05:54.391Z,16.77
2019-03-30T08:10:59.861Z,17.80
2019-03-30T08:16:05.999Z,17.27
2019-03-30T08:21:11.568Z,17.80
2019-03-30T08:26:17.226Z,17.50
2019-03-30T08:31:23.298Z,18.23
2019-03-30T08:36:28.946Z,17.57
2019-03-30T08:41:34.804Z,17.50
2019-03-30T08:46:41.397Z,18.70
2019-03-30T08:51:47.349Z,20.13
2019-03-30T08:56:54.566Z,18.53
2019-03-30T09:02:00.382Z,18.70
2019-03-30T09:07:06.193Z,17.23
2019-03-30T09:12:11.977Z,16.60
2019-03-30T09:17:18.476Z,17.03
2019-03-30T09:22:24.657Z,17.40
2019-03-30T09:27:31.742Z,16.83
2019-03-30T09:32:37.866Z,17.90
2019-03-30T09:37:44.269Z,17.63
2019-03-30T09:42:49.937Z,17.87
2019-03-30T09:47:57.120Z,17.27
2019-03-30T09:53:02.774Z,16.13
2019-03-30T09:58:08.362Z,15.43
2019-03-30T10:03:13.953Z,15.93
2019-03-30T10:08:19.987Z,14.60
2019-03-30T10:13:27.518Z,13.37
2019-03-30T10:18:33.268Z,12.40
2019-03-30T10:23:40.250Z,14.07
2019-03-30T10:28:47.198Z,13.97
2019-03-30T10:33:54.785Z,13.93
2019-03-30T10:39:00.425Z,13.03
2019-03-30T10:44:08.788Z,12.93
2019-03-30T10:49:14.753Z,13.90
2019-03-30T10:54:20.506Z,12.67
2019-03-30T10:59:27.597Z,13.20
2019-03-30T11:04:33.538Z,11.27
2019-03-30T11:09:39.515Z,11.63
2019-03-30T11:14:46.170Z,11.28
2019-03-30T11:19:52.676Z,11.97
2019-03-30T11:25:07.269Z,8.87
2019-03-30T11:30:07.672Z,9.40
2019-03-30T11:35:13.754Z,9.33
2019-03-30T11:40:20.152Z,8.90
2019-03-30T11:45:25.717Z,8.93
2019-03-30T11:50:32.117Z,9.25
2019-03-30T11:55:37.924Z,8.50
2019-03-30T12:00:44.087Z,9.40
2019-03-30T12:05:50.712Z,8.48
2019-03-30T12:10:56.558Z,8.08
2019-03-30T12:16:04.525Z,8.45
2019-03-30T12:21:11.236Z,7.87
2019-03-30T12:26:17.230Z,7.97
2019-03-30T12:31:24.355Z,6.87
2019-03-30T12:36:30.294Z,6.25
2019-03-30T12:41:37.781Z,6.20
2019-03-30T12:46:44.599Z,6.60
2019-03-30T12:51:52.016Z,6.30
2019-03-30T12:56:57.883Z,6.15
2019-03-30T13:02:04.790Z,6.12
2019-03-30T13:07:14.479Z,5.70
2019-03-30T13:12:23.222Z,6.00
2019-03-30T13:17:29.450Z,5.20
2019-03-30T13:22:37.732Z,7.40
2019-03-30T13:27:44.613Z,6.65
2019-03-30T13:32:53.566Z,6.87
2019-03-30T13:38:01.764Z,7.75
2019-03-30T13:43:11.213Z,8.20
2019-03-30T13:48:19.576Z,9.20
2019-03-30T13:53:29.131Z,8.95
2019-03-30T13:58:36.583Z,10.50
2019-03-30T14:03:43.085Z,10.38
2019-03-30T14:08:50.789Z,11.25
2019-03-30T14:13:56.716Z,11.10
2019-03-30T14:19:02.523Z,11.18
2019-03-30T14:24:12.089Z,12.60
2019-03-30T14:29:20.580Z,11.95
2019-03-30T14:34:30.588Z,14.85
2019-03-30T14:39:38.715Z,14.10
2019-03-30T14:44:48.054Z,14.70
2019-03-30T14:49:55.512Z,14.73
2019-03-30T14:55:02.584Z,14.63
2019-03-30T15:00:11.789Z,15.08
2019-03-30T15:05:18.986Z,14.07
2019-03-30T15:10:30.665Z,14.23
2019-03-30T15:15:40.100Z,12.73
2019-03-30T15:20:46.523Z,13.38
2019-03-30T15:25:53.440Z,13.83
2019-03-30T15:31:01.931Z,11.85
2019-03-30T15:36:09.057Z,12.90
2019-03-30T15:41:16.004Z,12.28
2019-03-30T15:46:23.472Z,11.97
2019-03-30T15:51:32.325Z,11.60
2019-03-30T15:56:42.760Z,12.18
2019-03-30T16:01:51.122Z,11.12
2019-03-30T16:06:59.460Z,11.93
2019-03-30T16:12:07.789Z,10.68
2019-03-30T16:17:14.990Z,11.80
2019-03-30T16:22:23.924Z,11.85
2019-03-30T16:27:33.440Z,10.68
2019-03-30T16:32:41.519Z,11.35
2019-03-30T16:37:48.448Z,11.38
2019-03-30T16:42:55.573Z,10.60
2019-03-30T16:48:04.004Z,10.80
2019-03-30T16:53:11.524Z,10.55
2019-03-30T16:58:21.268Z,10.63
2019-03-30T17:03:28.272Z,10.55
2019-03-30T17:08:36.613Z,10.95
2019-03-30T17:13:43.095Z,10.28
2019-03-30T17:18:51.311Z,10.68
2019-03-30T17:23:59.068Z,10.25
2019-03-30T17:29:05.394Z,10.28
2019-03-30T17:34:12.074Z,11.78
2019-03-30T17:39:19.511Z,11.43
2019-03-30T17:44:27.604Z,9.78
2019-03-30T17:49:34.415Z,9.70
2019-03-30T17:54:41.827Z,9.85
2019-03-30T17:59:50.436Z,9.73
2019-03-30T18:04:59.332Z,9.50
2019-03-30T18:10:09.344Z,9.00
2019-03-30T18:15:16.657Z,9.68
2019-03-30T18:20:23.136Z,9.77
2019-03-30T18:25:29.982Z,10.57
2019-03-30T18:30:42.151Z,9.83
2019-03-30T18:35:49.195Z,9.90
2019-03-30T18:40:54.829Z,9.83
2019-03-30T18:46:01.714Z,9.60
2019-03-30T18:51:08.354Z,9.83
2019-03-30T18:56:14.850Z,10.37
2019-03-30T19:01:22.984Z,10.73
2019-03-30T19:06:30.358Z,9.90
2019-03-30T19:11:37.846Z,9.33
2019-03-30T19:16:43.975Z,10.63
2019-03-30T19:21:50.073Z,10.10
2019-03-30T19:26:56.047Z,10.77
2019-03-30T19:32:03.759Z,11.57
2019-03-30T19:37:11.069Z,12.03
2019-03-30T19:42:16.994Z,11.80
2019-03-30T19:47:23.782Z,12.33
2019-03-30T19:52:39.848Z,12.37
2019-03-30T19:57:37.544Z,12.70
2019-03-30T20:02:43.825Z,12.63
2019-03-30T20:07:52.751Z,12.93
2019-03-30T20:12:59.993Z,14.03
2019-03-30T20:18:07.483Z,76.63
2019-03-30T20:23:13.701Z,40.73
2019-03-30T20:28:20.817Z,16.40
2019-03-30T20:33:26.802Z,16.73
2019-03-30T20:38:33.817Z,14.93
2019-03-30T20:43:40.265Z,15.67
2019-03-30T20:48:48.901Z,15.60
2019-03-30T20:53:56.447Z,16.90
2019-03-30T20:59:03.215Z,16.53
2019-03-30T21:04:08.989Z,18.43
2019-03-30T21:09:14.870Z,18.20
2019-03-30T21:14:21.944Z,18.33
2019-03-30T21:19:28.662Z,18.97
2019-03-30T21:24:36.607Z,19.47
2019-03-30T21:29:54.622Z,19.73
2019-03-30T21:34:56.007Z,18.47
2019-03-30T21:40:06.809Z,17.93
2019-03-30T21:45:15.793Z,18.83
2019-03-30T21:50:23.359Z,18.10
2019-03-30T21:55:29.995Z,17.73
2019-03-30T22:00:40.061Z,18.33
2019-03-30T22:05:47.663Z,17.47
2019-03-30T22:10:53.444Z,17.30
2019-03-30T22:15:59.115Z,17.80
2019-03-30T22:21:05.967Z,18.07
2019-03-30T22:26:13.102Z,17.63
2019-03-30T22:31:20.088Z,16.10
2019-03-30T22:36:28.211Z,17.93
2019-03-30T22:41:35.431Z,18.00
2019-03-30T22:46:43.426Z,16.80
2019-03-30T22:51:52.234Z,16.83
2019-03-30T22:56:58.151Z,16.60
2019-03-30T23:02:04.809Z,16.17
2019-03-30T23:07:12.247Z,16.30
2019-03-30T23:12:19.403Z,16.40
2019-03-30T23:17:27.358Z,17.17
2019-03-30T23:22:33.413Z,17.40
2019-03-30T23:27:39.650Z,17.70
2019-03-30T23:32:45.700Z,16.93
2019-03-30T23:37:53.392Z,17.27
2019-03-30T23:42:59.635Z,17.70
2019-03-30T23:48:05.223Z,17.20
2019-03-30T23:53:13.659Z,17.17
2019-03-30T23:58:21.344Z,18.07
